Terminal Aerodrome Forecast
Issued by NWS

Home | Current Version | Previous Version | Text Only | Print | Product List | Glossary On
Versions: 1 2 3 4 5 6 7 8 9 10 11 12 13
000
FTUS43 KILX 010500
TAFCMI
TAF
KCMI 010520Z 0106/0206 00000KT P6SM FEW100
     FM010900 00000KT 6SM BR SCT080
     FM011500 19004KT P6SM BKN060
     FM011800 24003KT P6SM VCTS BKN060CB
     FM020000 VRB03KT P6SM BKN150=

USA.gov is the U.S. government's official web portal to all federal, state and local government web resources and services.